sensor_id;sensor_type;location;lat;lon;timestamp;temperature;humidity
9410;DHT22;4744;52.576;13.568;2023-03-04T00:02:12;2.70;1.00
9410;DHT22;4744;52.576;13.568;2023-03-04T00:04:40;2.70;1.00
9410;DHT22;4744;52.576;13.568;2023-03-04T00:07:07;2.70;1.00
9410;DHT22;4744;52.576;13.568;2023-03-04T00:09:34;2.60;1.00
9410;DHT22;4744;52.576;13.568;2023-03-04T00:12:01;2.60;1.00
9410;DHT22;4744;52.576;13.568;2023-03-04T00:14:28;2.60;1.00
9410;DHT22;4744;52.576;13.568;2023-03-04T00:16:55;2.50;1.00
9410;DHT22;4744;52.576;13.568;2023-03-04T00:19:22;2.50;1.00
9410;DHT22;4744;52.576;13.568;2023-03-04T00:21:50;2.50;1.00
9410;DHT22;4744;52.576;13.568;2023-03-04T00:24:17;2.50;1.00
9410;DHT22;4744;52.576;13.568;2023-03-04T00:26:44;2.60;1.00
9410;DHT22;4744;52.576;13.568;2023-03-04T00:29:11;2.60;1.00
9410;DHT22;4744;52.576;13.568;2023-03-04T00:31:38;2.60;1.00
9410;DHT22;4744;52.576;13.568;2023-03-04T00:34:05;2.60;1.00
9410;DHT22;4744;52.576;13.568;2023-03-04T00:36:32;2.60;1.00
9410;DHT22;4744;52.576;13.568;2023-03-04T00:39:00;2.70;1.00
9410;DHT22;4744;52.576;13.568;2023-03-04T00:41:27;2.70;1.00
9410;DHT22;4744;52.576;13.568;2023-03-04T00:43:54;2.70;1.00
9410;DHT22;4744;52.576;13.568;2023-03-04T00:46:21;2.70;1.00
9410;DHT22;4744;52.576;13.568;2023-03-04T00:48:48;2.80;1.00
9410;DHT22;4744;52.576;13.568;2023-03-04T00:51:15;2.80;1.00
9410;DHT22;4744;52.576;13.568;2023-03-04T00:53:41;2.80;1.00
9410;DHT22;4744;52.576;13.568;2023-03-04T00:56:10;2.80;1.00
9410;DHT22;4744;52.576;13.568;2023-03-04T00:58:38;2.80;1.00
9410;DHT22;4744;52.576;13.568;2023-03-04T01:01:09;2.80;1.00
9410;DHT22;4744;52.576;13.568;2023-03-04T01:03:36;2.80;1.00
9410;DHT22;4744;52.576;13.568;2023-03-04T01:06:06;2.80;1.00
9410;DHT22;4744;52.576;13.568;2023-03-04T01:08:33;2.80;1.00
9410;DHT22;4744;52.576;13.568;2023-03-04T01:11:00;2.80;1.00
9410;DHT22;4744;52.576;13.568;2023-03-04T01:13:29;2.80;1.00
9410;DHT22;4744;52.576;13.568;2023-03-04T01:15:56;2.80;1.00
9410;DHT22;4744;52.576;13.568;2023-03-04T01:18:23;2.80;1.00
9410;DHT22;4744;52.576;13.568;2023-03-04T01:20:51;2.80;1.00
9410;DHT22;4744;52.576;13.568;2023-03-04T01:23:18;2.80;1.00
9410;DHT22;4744;52.576;13.568;2023-03-04T01:25:44;2.80;1.00
9410;DHT22;4744;52.576;13.568;2023-03-04T01:28:11;2.80;1.00
9410;DHT22;4744;52.576;13.568;2023-03-04T01:30:40;2.80;1.00
9410;DHT22;4744;52.576;13.568;2023-03-04T01:33:06;2.80;1.00
9410;DHT22;4744;52.576;13.568;2023-03-04T01:35:33;2.90;1.00
9410;DHT22;4744;52.576;13.568;2023-03-04T01:38:00;2.90;1.00
9410;DHT22;4744;52.576;13.568;2023-03-04T01:40:27;2.90;1.00
9410;DHT22;4744;52.576;13.568;2023-03-04T01:42:54;2.90;1.00
9410;DHT22;4744;52.576;13.568;2023-03-04T01:45:21;2.90;1.00
9410;DHT22;4744;52.576;13.568;2023-03-04T01:47:50;2.90;1.00
9410;DHT22;4744;52.576;13.568;2023-03-04T01:50:22;2.90;1.00
9410;DHT22;4744;52.576;13.568;2023-03-04T01:52:49;2.90;1.00
9410;DHT22;4744;52.576;13.568;2023-03-04T01:55:18;2.90;1.00
9410;DHT22;4744;52.576;13.568;2023-03-04T01:57:47;2.90;1.00
9410;DHT22;4744;52.576;13.568;2023-03-04T02:00:19;2.90;1.00
9410;DHT22;4744;52.576;13.568;2023-03-04T02:02:51;2.90;1.00
9410;DHT22;4744;52.576;13.568;2023-03-04T02:05:20;2.90;1.00
9410;DHT22;4744;52.576;13.568;2023-03-04T02:07:48;2.90;1.00
9410;DHT22;4744;52.576;13.568;2023-03-04T02:10:15;2.90;1.00
9410;DHT22;4744;52.576;13.568;2023-03-04T02:12:43;3.00;1.00
9410;DHT22;4744;52.576;13.568;2023-03-04T02:15:10;3.00;1.00
9410;DHT22;4744;52.576;13.568;2023-03-04T02:17:37;3.00;1.00
9410;DHT22;4744;52.576;13.568;2023-03-04T02:23:09;3.10;1.00
9410;DHT22;4744;52.576;13.568;2023-03-04T02:25:41;3.10;1.00
9410;DHT22;4744;52.576;13.568;2023-03-04T02:28:10;3.10;1.00
9410;DHT22;4744;52.576;13.568;2023-03-04T02:30:37;3.10;1.00
9410;DHT22;4744;52.576;13.568;2023-03-04T02:33:04;3.20;1.00
9410;DHT22;4744;52.576;13.568;2023-03-04T02:35:32;3.20;1.00
9410;DHT22;4744;52.576;13.568;2023-03-04T02:37:58;3.20;1.00
9410;DHT22;4744;52.576;13.568;2023-03-04T02:40:28;3.20;1.00
9410;DHT22;4744;52.576;13.568;2023-03-04T02:42:57;3.30;1.00
9410;DHT22;4744;52.576;13.568;2023-03-04T02:45:40;3.30;1.00
9410;DHT22;4744;52.576;13.568;2023-03-04T02:48:08;3.30;1.00
9410;DHT22;4744;52.576;13.568;2023-03-04T02:50:38;3.30;1.00
9410;DHT22;4744;52.576;13.568;2023-03-04T02:53:06;3.30;1.00
9410;DHT22;4744;52.576;13.568;2023-03-04T02:55:33;3.30;1.00
9410;DHT22;4744;52.576;13.568;2023-03-04T02:57:59;3.30;1.00
9410;DHT22;4744;52.576;13.568;2023-03-04T03:00:27;3.30;1.00
9410;DHT22;4744;52.576;13.568;2023-03-04T03:02:55;3.30;1.00
9410;DHT22;4744;52.576;13.568;2023-03-04T03:05:23;3.40;1.00
9410;DHT22;4744;52.576;13.568;2023-03-04T03:07:51;3.40;1.00
9410;DHT22;4744;52.576;13.568;2023-03-04T03:10:18;3.40;1.00
9410;DHT22;4744;52.576;13.568;2023-03-04T03:12:45;3.40;1.00
9410;DHT22;4744;52.576;13.568;2023-03-04T03:15:12;3.40;1.00
9410;DHT22;4744;52.576;13.568;2023-03-04T03:17:39;3.40;1.00
9410;DHT22;4744;52.576;13.568;2023-03-04T03:20:10;3.40;1.00
9410;DHT22;4744;52.576;13.568;2023-03-04T03:22:37;3.40;1.00
9410;DHT22;4744;52.576;13.568;2023-03-04T03:25:05;3.50;1.00
9410;DHT22;4744;52.576;13.568;2023-03-04T03:27:33;3.40;1.00
9410;DHT22;4744;52.576;13.568;2023-03-04T03:30:00;3.40;1.00
9410;DHT22;4744;52.576;13.568;2023-03-04T03:32:27;3.50;1.00
9410;DHT22;4744;52.576;13.568;2023-03-04T03:34:54;3.40;1.00
9410;DHT22;4744;52.576;13.568;2023-03-04T03:37:22;3.50;1.00
9410;DHT22;4744;52.576;13.568;2023-03-04T03:39:49;3.50;1.00
9410;DHT22;4744;52.576;13.568;2023-03-04T03:42:16;3.50;1.00
9410;DHT22;4744;52.576;13.568;2023-03-04T03:44:42;3.50;1.00
9410;DHT22;4744;52.576;13.568;2023-03-04T03:47:09;3.50;1.00
9410;DHT22;4744;52.576;13.568;2023-03-04T03:49:36;3.60;1.00
9410;DHT22;4744;52.576;13.568;2023-03-04T03:52:03;3.60;1.00
9410;DHT22;4744;52.576;13.568;2023-03-04T03:54:34;3.60;1.00
9410;DHT22;4744;52.576;13.568;2023-03-04T03:57:01;3.60;1.00
9410;DHT22;4744;52.576;13.568;2023-03-04T03:59:28;3.60;1.00
9410;DHT22;4744;52.576;13.568;2023-03-04T04:01:54;3.70;1.00
9410;DHT22;4744;52.576;13.568;2023-03-04T04:04:21;3.70;1.00
9410;DHT22;4744;52.576;13.568;2023-03-04T04:06:48;3.70;1.00
9410;DHT22;4744;52.576;13.568;2023-03-04T04:09:15;3.70;1.00
9410;DHT22;4744;52.576;13.568;2023-03-04T04:11:43;3.70;1.00
9410;DHT22;4744;52.576;13.568;2023-03-04T04:14:11;3.70;1.00
9410;DHT22;4744;52.576;13.568;2023-03-04T04:16:39;3.70;1.00
9410;DHT22;4744;52.576;13.568;2023-03-04T04:19:06;3.80;1.00
9410;DHT22;4744;52.576;13.568;2023-03-04T04:21:33;3.80;1.00
9410;DHT22;4744;52.576;13.568;2023-03-04T04:23:59;3.80;1.00
9410;DHT22;4744;52.576;13.568;2023-03-04T04:26:26;3.80;1.00
9410;DHT22;4744;52.576;13.568;2023-03-04T04:28:55;3.80;1.00
9410;DHT22;4744;52.576;13.568;2023-03-04T04:31:22;3.90;1.00
9410;DHT22;4744;52.576;13.568;2023-03-04T04:33:48;3.90;1.00
9410;DHT22;4744;52.576;13.568;2023-03-04T04:36:15;3.90;1.00
9410;DHT22;4744;52.576;13.568;2023-03-04T04:38:42;3.90;1.00
9410;DHT22;4744;52.576;13.568;2023-03-04T04:41:18;3.90;1.00
9410;DHT22;4744;52.576;13.568;2023-03-04T04:43:45;4.00;1.00
9410;DHT22;4744;52.576;13.568;2023-03-04T04:46:15;4.00;1.00
9410;DHT22;4744;52.576;13.568;2023-03-04T04:48:42;4.00;1.00
9410;DHT22;4744;52.576;13.568;2023-03-04T04:51:09;4.00;1.00
9410;DHT22;4744;52.576;13.568;2023-03-04T04:53:36;4.10;1.00
9410;DHT22;4744;52.576;13.568;2023-03-04T04:56:11;4.10;1.00
9410;DHT22;4744;52.576;13.568;2023-03-04T04:58:38;4.10;1.00
9410;DHT22;4744;52.576;13.568;2023-03-04T05:01:05;4.10;1.00
9410;DHT22;4744;52.576;13.568;2023-03-04T05:03:35;4.10;1.00
9410;DHT22;4744;52.576;13.568;2023-03-04T05:06:03;4.10;1.00
9410;DHT22;4744;52.576;13.568;2023-03-04T05:08:30;4.10;1.00
9410;DHT22;4744;52.576;13.568;2023-03-04T05:10:58;4.10;1.00
9410;DHT22;4744;52.576;13.568;2023-03-04T05:13:25;4.10;1.00
9410;DHT22;4744;52.576;13.568;2023-03-04T05:15:53;4.10;1.00
9410;DHT22;4744;52.576;13.568;2023-03-04T05:18:21;4.20;1.00
9410;DHT22;4744;52.576;13.568;2023-03-04T05:20:58;4.20;1.00
9410;DHT22;4744;52.576;13.568;2023-03-04T05:23:27;4.20;1.00
9410;DHT22;4744;52.576;13.568;2023-03-04T05:25:54;4.20;1.00
9410;DHT22;4744;52.576;13.568;2023-03-04T05:28:21;4.20;1.00
9410;DHT22;4744;52.576;13.568;2023-03-04T05:30:48;4.20;1.00
9410;DHT22;4744;52.576;13.568;2023-03-04T05:33:16;4.30;1.00
9410;DHT22;4744;52.576;13.568;2023-03-04T05:35:44;4.20;1.00
9410;DHT22;4744;52.576;13.568;2023-03-04T05:38:15;4.30;1.00
9410;DHT22;4744;52.576;13.568;2023-03-04T05:40:43;4.30;1.00
9410;DHT22;4744;52.576;13.568;2023-03-04T05:43:10;4.30;1.00
9410;DHT22;4744;52.576;13.568;2023-03-04T05:45:38;4.30;1.00
9410;DHT22;4744;52.576;13.568;2023-03-04T05:48:06;4.30;1.00
9410;DHT22;4744;52.576;13.568;2023-03-04T05:50:33;4.30;1.00
9410;DHT22;4744;52.576;13.568;2023-03-04T05:53:00;4.30;1.00
9410;DHT22;4744;52.576;13.568;2023-03-04T05:55:29;4.30;1.00
9410;DHT22;4744;52.576;13.568;2023-03-04T05:57:55;4.30;1.00
9410;DHT22;4744;52.576;13.568;2023-03-04T06:00:23;4.30;1.00
9410;DHT22;4744;52.576;13.568;2023-03-04T06:02:50;4.30;1.00
9410;DHT22;4744;52.576;13.568;2023-03-04T06:05:17;4.30;1.00
9410;DHT22;4744;52.576;13.568;2023-03-04T06:07:44;4.30;1.00
9410;DHT22;4744;52.576;13.568;2023-03-04T06:10:13;4.30;1.00
9410;DHT22;4744;52.576;13.568;2023-03-04T06:12:42;4.30;1.00
9410;DHT22;4744;52.576;13.568;2023-03-04T06:15:10;4.40;1.00
9410;DHT22;4744;52.576;13.568;2023-03-04T06:17:38;4.40;1.00
9410;DHT22;4744;52.576;13.568;2023-03-04T06:20:06;4.40;1.00
9410;DHT22;4744;52.576;13.568;2023-03-04T06:22:34;4.30;1.00
9410;DHT22;4744;52.576;13.568;2023-03-04T06:25:00;4.40;1.00
9410;DHT22;4744;52.576;13.568;2023-03-04T06:27:27;4.40;1.00
9410;DHT22;4744;52.576;13.568;2023-03-04T06:29:56;4.30;1.00
9410;DHT22;4744;52.576;13.568;2023-03-04T06:32:23;4.30;1.00
9410;DHT22;4744;52.576;13.568;2023-03-04T06:34:50;4.30;1.00
9410;DHT22;4744;52.576;13.568;2023-03-04T06:37:17;4.40;1.00
9410;DHT22;4744;52.576;13.568;2023-03-04T06:39:44;4.40;1.00
9410;DHT22;4744;52.576;13.568;2023-03-04T06:42:12;4.40;1.00
9410;DHT22;4744;52.576;13.568;2023-03-04T06:44:39;4.40;1.00
9410;DHT22;4744;52.576;13.568;2023-03-04T06:47:07;4.40;1.00
9410;DHT22;4744;52.576;13.568;2023-03-04T06:49:34;4.40;1.00
9410;DHT22;4744;52.576;13.568;2023-03-04T06:52:01;4.40;1.00
9410;DHT22;4744;52.576;13.568;2023-03-04T06:54:28;4.40;1.00
9410;DHT22;4744;52.576;13.568;2023-03-04T06:56:55;4.40;1.00
9410;DHT22;4744;52.576;13.568;2023-03-04T06:59:22;4.40;1.00
9410;DHT22;4744;52.576;13.568;2023-03-04T07:01:49;4.50;1.00
9410;DHT22;4744;52.576;13.568;2023-03-04T07:04:17;4.50;1.00
9410;DHT22;4744;52.576;13.568;2023-03-04T07:06:44;4.50;1.00
9410;DHT22;4744;52.576;13.568;2023-03-04T07:09:11;4.50;1.00
9410;DHT22;4744;52.576;13.568;2023-03-04T07:11:38;4.50;1.00
9410;DHT22;4744;52.576;13.568;2023-03-04T07:14:05;4.50;1.00
9410;DHT22;4744;52.576;13.568;2023-03-04T07:16:32;4.50;1.00
9410;DHT22;4744;52.576;13.568;2023-03-04T07:18:59;4.50;1.00
9410;DHT22;4744;52.576;13.568;2023-03-04T07:21:28;4.50;1.00
9410;DHT22;4744;52.576;13.568;2023-03-04T07:23:55;4.50;1.00
9410;DHT22;4744;52.576;13.568;2023-03-04T07:26:22;4.60;1.00
9410;DHT22;4744;52.576;13.568;2023-03-04T07:28:49;4.60;1.00
9410;DHT22;4744;52.576;13.568;2023-03-04T07:31:23;4.60;1.00
9410;DHT22;4744;52.576;13.568;2023-03-04T07:33:50;4.60;1.00
9410;DHT22;4744;52.576;13.568;2023-03-04T07:36:17;4.60;1.00
9410;DHT22;4744;52.576;13.568;2023-03-04T07:38:48;4.70;1.00
9410;DHT22;4744;52.576;13.568;2023-03-04T07:41:15;4.70;1.00
9410;DHT22;4744;52.576;13.568;2023-03-04T07:43:43;4.70;1.00
9410;DHT22;4744;52.576;13.568;2023-03-04T07:46:10;4.70;1.00
9410;DHT22;4744;52.576;13.568;2023-03-04T07:48:37;4.80;1.00
9410;DHT22;4744;52.576;13.568;2023-03-04T07:51:06;4.80;1.00
9410;DHT22;4744;52.576;13.568;2023-03-04T07:53:34;4.80;1.00
9410;DHT22;4744;52.576;13.568;2023-03-04T07:56:04;4.90;1.00
9410;DHT22;4744;52.576;13.568;2023-03-04T07:58:32;4.90;1.00
9410;DHT22;4744;52.576;13.568;2023-03-04T08:00:59;4.90;1.00
9410;DHT22;4744;52.576;13.568;2023-03-04T08:03:27;5.00;1.00
9410;DHT22;4744;52.576;13.568;2023-03-04T08:05:55;5.00;1.00
9410;DHT22;4744;52.576;13.568;2023-03-04T08:08:22;5.00;1.00
9410;DHT22;4744;52.576;13.568;2023-03-04T08:10:48;5.00;1.00
9410;DHT22;4744;52.576;13.568;2023-03-04T08:13:17;4.90;1.00
9410;DHT22;4744;52.576;13.568;2023-03-04T08:15:44;4.90;1.00
9410;DHT22;4744;52.576;13.568;2023-03-04T08:18:11;4.90;1.00
9410;DHT22;4744;52.576;13.568;2023-03-04T08:20:40;4.80;1.00
9410;DHT22;4744;52.576;13.568;2023-03-04T08:23:08;4.80;1.00
9410;DHT22;4744;52.576;13.568;2023-03-04T08:25:38;4.80;1.00
9410;DHT22;4744;52.576;13.568;2023-03-04T08:28:05;4.80;1.00
9410;DHT22;4744;52.576;13.568;2023-03-04T08:30:34;4.80;1.00
9410;DHT22;4744;52.576;13.568;2023-03-04T08:33:02;4.80;1.00
9410;DHT22;4744;52.576;13.568;2023-03-04T08:35:29;4.80;1.00
9410;DHT22;4744;52.576;13.568;2023-03-04T08:37:56;4.80;1.00
9410;DHT22;4744;52.576;13.568;2023-03-04T08:40:23;4.80;1.00
9410;DHT22;4744;52.576;13.568;2023-03-04T08:42:51;4.90;1.00
9410;DHT22;4744;52.576;13.568;2023-03-04T08:45:18;4.90;1.00
9410;DHT22;4744;52.576;13.568;2023-03-04T08:47:47;5.00;1.00
9410;DHT22;4744;52.576;13.568;2023-03-04T08:50:13;5.10;1.00
9410;DHT22;4744;52.576;13.568;2023-03-04T08:52:40;5.20;1.00
9410;DHT22;4744;52.576;13.568;2023-03-04T08:55:08;5.20;1.00
9410;DHT22;4744;52.576;13.568;2023-03-04T08:57:35;5.20;1.00
9410;DHT22;4744;52.576;13.568;2023-03-04T09:00:02;5.30;1.00
9410;DHT22;4744;52.576;13.568;2023-03-04T09:02:29;5.30;1.00
9410;DHT22;4744;52.576;13.568;2023-03-04T09:04:57;5.30;1.00
9410;DHT22;4744;52.576;13.568;2023-03-04T09:07:24;5.30;1.00
9410;DHT22;4744;52.576;13.568;2023-03-04T09:09:51;5.40;1.00
9410;DHT22;4744;52.576;13.568;2023-03-04T09:12:18;5.40;1.00
9410;DHT22;4744;52.576;13.568;2023-03-04T09:14:45;5.50;1.00
9410;DHT22;4744;52.576;13.568;2023-03-04T09:17:12;5.50;1.00
9410;DHT22;4744;52.576;13.568;2023-03-04T09:19:39;5.50;1.00
9410;DHT22;4744;52.576;13.568;2023-03-04T09:22:07;5.50;1.00
9410;DHT22;4744;52.576;13.568;2023-03-04T09:24:34;5.50;1.00
9410;DHT22;4744;52.576;13.568;2023-03-04T09:27:01;5.60;1.00
9410;DHT22;4744;52.576;13.568;2023-03-04T09:29:28;5.60;1.00
9410;DHT22;4744;52.576;13.568;2023-03-04T09:31:55;5.60;1.00
9410;DHT22;4744;52.576;13.568;2023-03-04T09:34:22;5.60;1.00
9410;DHT22;4744;52.576;13.568;2023-03-04T09:36:49;5.70;1.00
9410;DHT22;4744;52.576;13.568;2023-03-04T09:39:17;5.70;1.00
9410;DHT22;4744;52.576;13.568;2023-03-04T09:41:46;5.80;1.00
9410;DHT22;4744;52.576;13.568;2023-03-04T09:44:20;5.80;1.00
9410;DHT22;4744;52.576;13.568;2023-03-04T09:46:49;5.80;1.00
9410;DHT22;4744;52.576;13.568;2023-03-04T09:49:17;5.90;1.00
9410;DHT22;4744;52.576;13.568;2023-03-04T09:51:54;5.80;1.00
9410;DHT22;4744;52.576;13.568;2023-03-04T09:54:50;5.90;1.00
9410;DHT22;4744;52.576;13.568;2023-03-04T09:57:26;5.90;1.00
9410;DHT22;4744;52.576;13.568;2023-03-04T10:00:04;6.00;1.00
9410;DHT22;4744;52.576;13.568;2023-03-04T10:02:43;6.00;1.00
9410;DHT22;4744;52.576;13.568;2023-03-04T10:05:12;6.00;1.00
9410;DHT22;4744;52.576;13.568;2023-03-04T10:07:42;6.00;1.00
9410;DHT22;4744;52.576;13.568;2023-03-04T10:10:13;6.00;1.00
9410;DHT22;4744;52.576;13.568;2023-03-04T10:12:44;6.10;1.00
9410;DHT22;4744;52.576;13.568;2023-03-04T10:15:22;6.10;1.00
9410;DHT22;4744;52.576;13.568;2023-03-04T10:17:55;6.20;1.00
9410;DHT22;4744;52.576;13.568;2023-03-04T10:20:30;6.30;1.00
9410;DHT22;4744;52.576;13.568;2023-03-04T10:23:07;6.50;1.00
9410;DHT22;4744;52.576;13.568;2023-03-04T10:25:40;6.70;1.00
9410;DHT22;4744;52.576;13.568;2023-03-04T10:28:12;6.70;1.00
9410;DHT22;4744;52.576;13.568;2023-03-04T10:30:47;6.60;1.00
9410;DHT22;4744;52.576;13.568;2023-03-04T10:33:17;6.60;1.00
9410;DHT22;4744;52.576;13.568;2023-03-04T10:35:48;6.70;1.00
9410;DHT22;4744;52.576;13.568;2023-03-04T10:38:18;6.70;1.00
9410;DHT22;4744;52.576;13.568;2023-03-04T10:40:47;6.80;1.00
9410;DHT22;4744;52.576;13.568;2023-03-04T10:43:16;6.90;1.00
9410;DHT22;4744;52.576;13.568;2023-03-04T10:45:43;7.00;1.00
9410;DHT22;4744;52.576;13.568;2023-03-04T10:48:19;7.10;1.00
9410;DHT22;4744;52.576;13.568;2023-03-04T10:50:47;7.20;1.00
9410;DHT22;4744;52.576;13.568;2023-03-04T10:53:28;7.20;1.00
9410;DHT22;4744;52.576;13.568;2023-03-04T10:55:59;7.30;1.00
9410;DHT22;4744;52.576;13.568;2023-03-04T10:58:27;7.40;1.00
9410;DHT22;4744;52.576;13.568;2023-03-04T11:01:05;7.40;1.00
9410;DHT22;4744;52.576;13.568;2023-03-04T11:03:33;7.30;1.00
9410;DHT22;4744;52.576;13.568;2023-03-04T11:06:10;7.30;1.00
9410;DHT22;4744;52.576;13.568;2023-03-04T11:08:39;7.30;1.00
9410;DHT22;4744;52.576;13.568;2023-03-04T11:11:28;7.20;1.00
9410;DHT22;4744;52.576;13.568;2023-03-04T11:14:01;7.20;1.00
9410;DHT22;4744;52.576;13.568;2023-03-04T11:16:31;7.20;1.00
9410;DHT22;4744;52.576;13.568;2023-03-04T11:19:03;7.10;1.00
9410;DHT22;4744;52.576;13.568;2023-03-04T11:21:35;7.10;1.00
9410;DHT22;4744;52.576;13.568;2023-03-04T11:24:07;7.10;1.00
9410;DHT22;4744;52.576;13.568;2023-03-04T11:26:40;7.10;1.00
9410;DHT22;4744;52.576;13.568;2023-03-04T11:29:14;7.10;1.00
9410;DHT22;4744;52.576;13.568;2023-03-04T11:31:46;7.20;1.00
9410;DHT22;4744;52.576;13.568;2023-03-04T11:34:22;7.20;1.00
9410;DHT22;4744;52.576;13.568;2023-03-04T11:36:54;7.20;1.00
9410;DHT22;4744;52.576;13.568;2023-03-04T11:39:26;7.10;1.00
9410;DHT22;4744;52.576;13.568;2023-03-04T11:41:59;7.10;1.00
9410;DHT22;4744;52.576;13.568;2023-03-04T11:44:28;7.10;1.00
9410;DHT22;4744;52.576;13.568;2023-03-04T11:47:15;7.10;1.00
9410;DHT22;4744;52.576;13.568;2023-03-04T11:50:02;7.10;1.00
9410;DHT22;4744;52.576;13.568;2023-03-04T11:52:50;7.10;1.00
9410;DHT22;4744;52.576;13.568;2023-03-04T11:55:33;7.00;1.00
9410;DHT22;4744;52.576;13.568;2023-03-04T12:03:59;6.80;1.00
9410;DHT22;4744;52.576;13.568;2023-03-04T12:06:37;6.80;1.00
9410;DHT22;4744;52.576;13.568;2023-03-04T12:09:16;6.80;1.00
9410;DHT22;4744;52.576;13.568;2023-03-04T12:11:57;7.00;1.00
9410;DHT22;4744;52.576;13.568;2023-03-04T12:14:29;7.10;1.00
9410;DHT22;4744;52.576;13.568;2023-03-04T12:17:27;7.20;1.00
9410;DHT22;4744;52.576;13.568;2023-03-04T12:20:26;7.20;1.00
9410;DHT22;4744;52.576;13.568;2023-03-04T12:23:05;7.20;1.00
9410;DHT22;4744;52.576;13.568;2023-03-04T12:25:40;7.30;1.00
9410;DHT22;4744;52.576;13.568;2023-03-04T12:28:23;7.20;1.00
9410;DHT22;4744;52.576;13.568;2023-03-04T12:31:06;7.20;1.00
9410;DHT22;4744;52.576;13.568;2023-03-04T12:33:43;7.20;1.00
9410;DHT22;4744;52.576;13.568;2023-03-04T12:36:23;7.20;1.00
9410;DHT22;4744;52.576;13.568;2023-03-04T12:38:58;7.20;1.00
9410;DHT22;4744;52.576;13.568;2023-03-04T12:41:39;7.10;1.00
9410;DHT22;4744;52.576;13.568;2023-03-04T12:44:12;7.00;1.00
9410;DHT22;4744;52.576;13.568;2023-03-04T12:47:06;6.90;1.00
9410;DHT22;4744;52.576;13.568;2023-03-04T12:49:49;6.80;1.00
9410;DHT22;4744;52.576;13.568;2023-03-04T12:52:28;6.80;1.00
9410;DHT22;4744;52.576;13.568;2023-03-04T12:55:01;6.80;1.00
9410;DHT22;4744;52.576;13.568;2023-03-04T12:57:29;6.70;1.00
9410;DHT22;4744;52.576;13.568;2023-03-04T13:00:08;6.60;1.00
9410;DHT22;4744;52.576;13.568;2023-03-04T13:05:57;6.50;1.00
9410;DHT22;4744;52.576;13.568;2023-03-04T13:08:35;6.50;1.00
9410;DHT22;4744;52.576;13.568;2023-03-04T13:11:32;6.40;1.00
9410;DHT22;4744;52.576;13.568;2023-03-04T13:14:06;6.40;1.00
9410;DHT22;4744;52.576;13.568;2023-03-04T13:16:35;6.30;1.00
9410;DHT22;4744;52.576;13.568;2023-03-04T13:22:26;6.40;1.00
9410;DHT22;4744;52.576;13.568;2023-03-04T13:24:55;6.40;1.00
9410;DHT22;4744;52.576;13.568;2023-03-04T13:27:45;6.40;1.00
9410;DHT22;4744;52.576;13.568;2023-03-04T13:30:41;6.40;1.00
9410;DHT22;4744;52.576;13.568;2023-03-04T13:33:47;6.40;1.00
9410;DHT22;4744;52.576;13.568;2023-03-04T13:36:29;6.40;1.00
9410;DHT22;4744;52.576;13.568;2023-03-04T13:38:58;6.40;1.00
9410;DHT22;4744;52.576;13.568;2023-03-04T13:41:30;6.40;1.00
9410;DHT22;4744;52.576;13.568;2023-03-04T13:43:59;6.40;1.00
9410;DHT22;4744;52.576;13.568;2023-03-04T13:46:40;6.40;1.00
9410;DHT22;4744;52.576;13.568;2023-03-04T13:49:16;6.40;1.00
9410;DHT22;4744;52.576;13.568;2023-03-04T13:51:45;6.40;1.00
9410;DHT22;4744;52.576;13.568;2023-03-04T13:54:14;6.40;1.00
9410;DHT22;4744;52.576;13.568;2023-03-04T13:56:45;6.40;1.00
9410;DHT22;4744;52.576;13.568;2023-03-04T13:59:28;6.30;1.00
9410;DHT22;4744;52.576;13.568;2023-03-04T14:02:01;6.30;1.00
9410;DHT22;4744;52.576;13.568;2023-03-04T14:04:31;6.30;1.00
9410;DHT22;4744;52.576;13.568;2023-03-04T14:06:59;6.20;1.00
9410;DHT22;4744;52.576;13.568;2023-03-04T14:09:29;6.20;1.00
9410;DHT22;4744;52.576;13.568;2023-03-04T14:11:58;6.20;1.00
9410;DHT22;4744;52.576;13.568;2023-03-04T14:14:29;6.10;1.00
9410;DHT22;4744;52.576;13.568;2023-03-04T14:16:59;6.10;1.00
9410;DHT22;4744;52.576;13.568;2023-03-04T14:19:28;6.10;1.00
9410;DHT22;4744;52.576;13.568;2023-03-04T14:21:56;6.10;1.00
9410;DHT22;4744;52.576;13.568;2023-03-04T14:24:23;6.10;1.00
9410;DHT22;4744;52.576;13.568;2023-03-04T14:27:05;6.10;1.00
9410;DHT22;4744;52.576;13.568;2023-03-04T14:29:36;6.10;1.00
9410;DHT22;4744;52.576;13.568;2023-03-04T14:32:03;6.10;1.00
9410;DHT22;4744;52.576;13.568;2023-03-04T14:34:33;6.10;1.00
9410;DHT22;4744;52.576;13.568;2023-03-04T14:37:01;6.10;1.00
9410;DHT22;4744;52.576;13.568;2023-03-04T14:39:31;6.10;1.00
9410;DHT22;4744;52.576;13.568;2023-03-04T14:42:07;6.10;1.00
9410;DHT22;4744;52.576;13.568;2023-03-04T14:44:38;6.10;1.00
9410;DHT22;4744;52.576;13.568;2023-03-04T14:47:11;6.10;1.00
9410;DHT22;4744;52.576;13.568;2023-03-04T14:49:42;6.10;1.00
9410;DHT22;4744;52.576;13.568;2023-03-04T14:52:31;6.00;1.00
9410;DHT22;4744;52.576;13.568;2023-03-04T14:54:59;6.00;1.00
9410;DHT22;4744;52.576;13.568;2023-03-04T14:57:31;6.00;1.00
9410;DHT22;4744;52.576;13.568;2023-03-04T15:00:14;6.00;1.00
9410;DHT22;4744;52.576;13.568;2023-03-04T15:02:42;5.90;1.00
9410;DHT22;4744;52.576;13.568;2023-03-04T15:05:17;5.90;1.00
9410;DHT22;4744;52.576;13.568;2023-03-04T15:07:50;5.90;1.00
9410;DHT22;4744;52.576;13.568;2023-03-04T15:10:21;5.90;1.00
9410;DHT22;4744;52.576;13.568;2023-03-04T15:12:55;5.90;1.00
9410;DHT22;4744;52.576;13.568;2023-03-04T15:15:36;5.90;1.00
9410;DHT22;4744;52.576;13.568;2023-03-04T15:18:15;5.90;1.00
9410;DHT22;4744;52.576;13.568;2023-03-04T15:20:52;5.90;1.00
9410;DHT22;4744;52.576;13.568;2023-03-04T15:23:18;5.90;1.00
9410;DHT22;4744;52.576;13.568;2023-03-04T15:25:45;5.80;1.00
9410;DHT22;4744;52.576;13.568;2023-03-04T15:28:18;5.80;1.00
9410;DHT22;4744;52.576;13.568;2023-03-04T15:30:45;5.80;1.00
9410;DHT22;4744;52.576;13.568;2023-03-04T15:33:12;5.90;1.00
9410;DHT22;4744;52.576;13.568;2023-03-04T15:35:50;5.80;1.00
9410;DHT22;4744;52.576;13.568;2023-03-04T15:38:18;5.80;1.00
9410;DHT22;4744;52.576;13.568;2023-03-04T15:40:45;5.80;1.00
9410;DHT22;4744;52.576;13.568;2023-03-04T15:43:14;5.80;1.00
9410;DHT22;4744;52.576;13.568;2023-03-04T15:45:43;5.80;1.00
9410;DHT22;4744;52.576;13.568;2023-03-04T15:48:12;5.70;1.00
9410;DHT22;4744;52.576;13.568;2023-03-04T15:50:41;5.70;1.00
9410;DHT22;4744;52.576;13.568;2023-03-04T15:53:13;5.70;1.00
9410;DHT22;4744;52.576;13.568;2023-03-04T15:55:43;5.60;1.00
9410;DHT22;4744;52.576;13.568;2023-03-04T15:58:11;5.60;1.00
9410;DHT22;4744;52.576;13.568;2023-03-04T16:00:39;5.60;1.00
9410;DHT22;4744;52.576;13.568;2023-03-04T16:03:13;5.60;1.00
9410;DHT22;4744;52.576;13.568;2023-03-04T16:05:41;5.60;1.00
9410;DHT22;4744;52.576;13.568;2023-03-04T16:08:10;5.50;1.00
9410;DHT22;4744;52.576;13.568;2023-03-04T16:10:38;5.60;1.00
9410;DHT22;4744;52.576;13.568;2023-03-04T16:13:07;5.50;1.00
9410;DHT22;4744;52.576;13.568;2023-03-04T16:15:38;5.50;1.00
9410;DHT22;4744;52.576;13.568;2023-03-04T16:18:06;5.50;1.00
9410;DHT22;4744;52.576;13.568;2023-03-04T16:20:33;5.40;1.00
9410;DHT22;4744;52.576;13.568;2023-03-04T16:23:01;5.40;1.00
9410;DHT22;4744;52.576;13.568;2023-03-04T16:25:28;5.40;1.00
9410;DHT22;4744;52.576;13.568;2023-03-04T16:27:56;5.30;1.00
9410;DHT22;4744;52.576;13.568;2023-03-04T16:30:25;5.30;1.00
9410;DHT22;4744;52.576;13.568;2023-03-04T16:32:53;5.30;1.00
9410;DHT22;4744;52.576;13.568;2023-03-04T16:35:21;5.20;1.00
9410;DHT22;4744;52.576;13.568;2023-03-04T16:37:50;5.20;1.00
9410;DHT22;4744;52.576;13.568;2023-03-04T16:40:19;5.20;1.00
9410;DHT22;4744;52.576;13.568;2023-03-04T16:42:46;5.10;1.00
9410;DHT22;4744;52.576;13.568;2023-03-04T16:45:15;5.20;1.00
9410;DHT22;4744;52.576;13.568;2023-03-04T16:47:43;5.10;1.00
9410;DHT22;4744;52.576;13.568;2023-03-04T16:50:12;5.10;1.00
9410;DHT22;4744;52.576;13.568;2023-03-04T16:52:42;5.10;1.00